Wetterdaten: Woche 13.10.14 - 19.10.14 (KW42)
Datum Zeit Temp. A. Feuchte A. Luftdruck Regen Wind Richtung Taupunkt Windchill Windben
13.10.2014 00:00 12,8 C 82 % 1012,0 hPa 0,0 l/m 0,0 km/h N 9,8 C 12,8 C 0,0 km/h
13.10.2014 01:00 12,1 C 82 % 1011,6 hPa 0,0 l/m 0,0 km/h N 9,1 C 12,1 C 0,0 km/h
13.10.2014 02:00 11,6 C 82 % 1011,3 hPa 0,0 l/m 0,0 km/h N 8,6 C 11,6 C 0,0 km/h
13.10.2014 03:00 12,1 C 81 % 1011,3 hPa 0,0 l/m 0,0 km/h N 8,8 C 12,1 C 0,0 km/h
13.10.2014 04:00 13,4 C 79 % 1010,8 hPa 0,0 l/m 0,0 km/h N 9,8 C 13,4 C 0,0 km/h
13.10.2014 05:00 14,1 C 78 % 1010,7 hPa 0,0 l/m 0,0 km/h N 10,3 C 14,1 C 0,0 km/h
13.10.2014 06:00 14,4 C 78 % 1010,6 hPa 0,3 l/m 0,0 km/h N 10,6 C 14,4 C 0,0 km/h
13.10.2014 07:00 14,5 C 78 % 1010,8 hPa 0,0 l/m 0,0 km/h N 10,8 C 14,5 C 0,0 km/h
13.10.2014 08:00 14,7 C 77 % 1011,1 hPa 0,0 l/m 0,0 km/h N 10,7 C 14,7 C 0,4 km/h
13.10.2014 09:00 14,8 C 77 % 1011,6 hPa 0,0 l/m 0,1 km/h N 10,8 C 14,8 C 2,4 km/h
13.10.2014 10:00 14,9 C 77 % 1011,4 hPa 0,0 l/m 0,2 km/h N 10,9 C 14,9 C 3,2 km/h
13.10.2014 11:00 15,0 C 77 % 1011,7 hPa 0,0 l/m 0,2 km/h N 11,0 C 15,0 C 2,4 km/h
13.10.2014 12:00 15,3 C 77 % 1011,5 hPa 0,0 l/m 0,6 km/h N 11,2 C 15,3 C 5,6 km/h
13.10.2014 13:00 15,3 C 78 % 1011,0 hPa 0,0 l/m 0,6 km/h N 11,4 C 15,3 C 4,8 km/h
13.10.2014 14:00 15,4 C 78 % 1010,8 hPa 0,0 l/m 0,5 km/h N 11,6 C 15,4 C 4,4 km/h
13.10.2014 15:00 15,5 C 79 % 1010,5 hPa 0,0 l/m 0,3 km/h N 11,9 C 15,5 C 4,4 km/h
13.10.2014 16:00 15,7 C 80 % 1009,8 hPa 0,0 l/m 0,0 km/h N 12,2 C 15,7 C 0,4 km/h
13.10.2014 17:00 15,8 C 81 % 1009,4 hPa 0,0 l/m 0,1 km/h N 12,4 C 15,8 C 2,4 km/h
13.10.2014 18:00 15,4 C 82 % 1009,3 hPa 0,0 l/m 0,1 km/h N 12,3 C 15,4 C 1,6 km/h
13.10.2014 19:00 15,0 C 82 % 1009,2 hPa 0,0 l/m 0,0 km/h N 11,9 C 15,0 C 0,0 km/h
13.10.2014 20:00 14,4 C 83 % 1008,7 hPa 0,0 l/m 0,0 km/h N 11,5 C 14,4 C 0,4 km/h
13.10.2014 21:00 13,5 C 83 % 1008,1 hPa 0,0 l/m 0,1 km/h N 10,6 C 13,5 C 0,8 km/h
13.10.2014 22:00 12,8 C 82 % 1008,1 hPa 0,0 l/m 0,0 km/h N 9,8 C 12,8 C 0,8 km/h
13.10.2014 23:00 13,0 C 81 % 1008,1 hPa 0,0 l/m 0,0 km/h N 9,7 C 13,0 C 0,4 km/h
14.10.2014 00:00 13,7 C 80 % 1007,8 hPa 0,0 l/m 0,3 km/h N 10,2 C 13,7 C 2,8 km/h
14.10.2014 01:00 14,1 C 79 % 1007,2 hPa 0,0 l/m 0,1 km/h N 10,5 C 14,1 C 2,0 km/h
14.10.2014 02:00 13,7 C 79 % 1006,5 hPa 0,0 l/m 0,2 km/h N 10,1 C 13,7 C 2,4 km/h
14.10.2014 03:00 13,6 C 79 % 1006,7 hPa 0,0 l/m 0,0 km/h N 10,1 C 13,6 C 0,4 km/h
14.10.2014 04:00 13,3 C 79 % 1007,0 hPa 0,0 l/m 0,3 km/h N 9,6 C 13,3 C 2,4 km/h
14.10.2014 05:00 13,9 C 77 % 1007,5 hPa 0,0 l/m 0,6 km/h N 9,9 C 13,9 C 4,8 km/h
14.10.2014 06:00 13,9 C 78 % 1007,7 hPa 0,0 l/m 0,0 km/h N 10,1 C 13,9 C 1,6 km/h
14.10.2014 07:00 14,0 C 77 % 1008,2 hPa 0,0 l/m 0,8 km/h N 10,0 C 14,0 C 6,4 km/h
14.10.2014 08:00 16,4 C 81 % 1008,7 hPa 0,3 l/m 7,2 km/h N 13,1 C 15,8 C 24,9 km/h
14.10.2014 09:00 17,7 C 78 % 1009,5 hPa 0,0 l/m 9,8 km/h N 13,9 C 16,2 C 31,8 km/h
14.10.2014 10:00 18,2 C 75 % 1010,8 hPa 0,0 l/m 6,6 km/h N 13,7 C 18,0 C 23,3 km/h
14.10.2014 11:00 18,2 C 72 % 1011,4 hPa 0,0 l/m 5,6 km/h N 13,0 C 18,0 C 20,1 km/h
14.10.2014 12:00 18,4 C 68 % 1011,5 hPa 0,0 l/m 6,5 km/h N 12,3 C 18,3 C 23,3 km/h
14.10.2014 13:00 19,5 C 63 % 1010,9 hPa 0,0 l/m 5,2 km/h N 12,1 C 19,5 C 21,3 km/h
14.10.2014 14:00 20,3 C 59 % 1010,8 hPa 0,0 l/m 5,4 km/h N 12,1 C 20,3 C 22,1 km/h
14.10.2014 15:00 20,2 C 59 % 1010,6 hPa 0,0 l/m 4,9 km/h N 11,9 C 20,1 C 19,3 km/h
14.10.2014 16:00 20,1 C 60 % 1010,5 hPa 0,0 l/m 3,4 km/h N 11,9 C 20,1 C 12,1 km/h
14.10.2014 17:00 19,5 C 64 % 1010,5 hPa 0,0 l/m 0,2 km/h N 12,5 C 19,5 C 3,6 km/h
14.10.2014 18:00 17,5 C 70 % 1010,6 hPa 0,0 l/m 0,0 km/h N 12,0 C 17,5 C 0,0 km/h
14.10.2014 19:00 15,2 C 78 % 1011,0 hPa 0,0 l/m 0,0 km/h N 11,4 C 15,2 C 0,0 km/h
14.10.2014 20:00 13,8 C 82 % 1011,0 hPa 0,0 l/m 0,0 km/h N 10,7 C 13,8 C 0,4 km/h
14.10.2014 21:00 12,9 C 84 % 1011,2 hPa 0,0 l/m 0,0 km/h N 10,2 C 12,9 C 0,0 km/h
14.10.2014 22:00 12,3 C 84 % 1011,2 hPa 0,0 l/m 0,0 km/h N 9,7 C 12,3 C 0,0 km/h
14.10.2014 23:00 11,7 C 85 % 1010,8 hPa 0,0 l/m 0,0 km/h N 9,2 C 11,7 C 0,0 km/h
15.10.2014 00:00 11,0 C 84 % 1010,4 hPa 0,0 l/m 0,0 km/h N 8,4 C 11,0 C 0,0 km/h
15.10.2014 01:00 10,4 C 84 % 1010,4 hPa 0,0 l/m 0,0 km/h N 7,8 C 10,4 C 0,0 km/h
15.10.2014 02:00 9,8 C 84 % 1010,0 hPa 0,0 l/m 0,0 km/h N 7,2 C 9,8 C 0,0 km/h
15.10.2014 03:00 9,5 C 83 % 1009,7 hPa 0,0 l/m 0,0 km/h N 6,8 C 9,5 C 0,0 km/h
15.10.2014 04:00 9,3 C 83 % 1009,5 hPa 0,0 l/m 0,0 km/h N 6,5 C 9,3 C 0,0 km/h
15.10.2014 05:00 8,9 C 82 % 1009,3 hPa 0,0 l/m 0,0 km/h N 6,1 C 8,9 C 0,0 km/h
15.10.2014 06:00 8,7 C 82 % 1008,8 hPa 0,0 l/m 0,0 km/h N 5,8 C 8,7 C 0,0 km/h
15.10.2014 07:00 8,8 C 82 % 1008,8 hPa 0,0 l/m 0,0 km/h N 5,8 C 8,8 C 0,0 km/h
15.10.2014 08:00 10,0 C 80 % 1008,4 hPa 0,0 l/m 0,0 km/h N 6,6 C 10,0 C 0,0 km/h
15.10.2014 09:00 12,2 C 77 % 1008,4 hPa 0,0 l/m 0,1 km/h N 8,3 C 12,2 C 1,6 km/h
15.10.2014 10:00 13,3 C 78 % 1008,7 hPa 0,0 l/m 0,2 km/h N 9,4 C 13,3 C 2,0 km/h
15.10.2014 11:00 14,0 C 79 % 1009,0 hPa 0,0 l/m 1,8 km/h N 10,4 C 14,0 C 10,1 km/h
15.10.2014 12:00 15,3 C 83 % 1008,6 hPa 0,0 l/m 2,5 km/h N 12,5 C 15,3 C 12,1 km/h
15.10.2014 13:00 17,0 C 79 % 1007,8 hPa 0,0 l/m 4,1 km/h N 13,3 C 17,0 C 15,7 km/h
15.10.2014 14:00 18,4 C 74 % 1007,8 hPa 0,0 l/m 3,5 km/h N 13,5 C 18,4 C 14,9 km/h
15.10.2014 15:00 18,3 C 71 % 1007,8 hPa 0,0 l/m 4,7 km/h N 12,8 C 18,3 C 16,1 km/h
15.10.2014 16:00 18,1 C 70 % 1007,8 hPa 0,0 l/m 4,5 km/h N 12,5 C 18,1 C 14,9 km/h
15.10.2014 17:00 17,4 C 72 % 1008,2 hPa 0,0 l/m 2,0 km/h N 12,2 C 17,4 C 10,5 km/h
15.10.2014 18:00 16,3 C 74 % 1008,2 hPa 0,0 l/m 0,3 km/h N 11,5 C 16,3 C 2,8 km/h
15.10.2014 19:00 14,0 C 79 % 1008,6 hPa 0,0 l/m 0,0 km/h N 10,3 C 14,0 C 0,0 km/h
15.10.2014 20:00 12,6 C 83 % 1009,2 hPa 0,0 l/m 0,0 km/h N 9,7 C 12,6 C 0,0 km/h
15.10.2014 21:00 12,4 C 84 % 1009,0 hPa 0,0 l/m 0,0 km/h N 9,8 C 12,4 C 0,4 km/h
15.10.2014 22:00 12,1 C 84 % 1009,2 hPa 0,0 l/m 0,1 km/h N 9,5 C 12,1 C 0,4 km/h
15.10.2014 23:00 11,5 C 84 % 1009,2 hPa 0,0 l/m 0,0 km/h N 8,9 C 11,5 C 0,0 km/h
16.10.2014 00:00 11,8 C 83 % 1008,7 hPa 0,0 l/m 0,2 km/h N 9,0 C 11,8 C 2,4 km/h
16.10.2014 01:00 11,7 C 82 % 1008,6 hPa 0,0 l/m 0,1 km/h N 8,8 C 11,7 C 1,6 km/h
16.10.2014 02:00 11,5 C 82 % 1008,5 hPa 0,0 l/m 0,0 km/h N 8,5 C 11,5 C 0,0 km/h
16.10.2014 03:00 11,5 C 82 % 1008,6 hPa 0,0 l/m 0,1 km/h N 8,4 C 11,5 C 0,8 km/h
16.10.2014 04:00 11,8 C 81 % 1008,7 hPa 0,0 l/m 0,0 km/h N 8,7 C 11,8 C 0,0 km/h
16.10.2014 05:00 11,7 C 81 % 1008,9 hPa 0,0 l/m 0,0 km/h N 8,6 C 11,7 C 0,0 km/h
16.10.2014 06:00 11,8 C 81 % 1009,1 hPa 0,0 l/m 0,0 km/h N 8,6 C 11,8 C 0,4 km/h
16.10.2014 07:00 11,7 C 81 % 1009,5 hPa 0,0 l/m 0,0 km/h N 8,5 C 11,7 C 0,0 km/h
16.10.2014 08:00 11,9 C 80 % 1009,9 hPa 0,0 l/m 0,0 km/h N 8,6 C 11,9 C 0,8 km/h
16.10.2014 09:00 13,3 C 79 % 1010,1 hPa 0,0 l/m 0,2 km/h N 9,7 C 13,3 C 2,8 km/h
16.10.2014 10:00 15,5 C 82 % 1010,0 hPa 0,0 l/m 0,2 km/h N 12,4 C 15,5 C 2,8 km/h
16.10.2014 11:00 17,7 C 80 % 1010,1 hPa 0,0 l/m 0,5 km/h N 14,2 C 17,7 C 4,0 km/h
16.10.2014 12:00 20,6 C 64 % 1009,5 hPa 0,0 l/m 1,6 km/h N 13,5 C 20,6 C 12,5 km/h
16.10.2014 13:00 21,3 C 59 % 1009,0 hPa 0,0 l/m 3,0 km/h N 12,9 C 21,3 C 16,9 km/h
16.10.2014 14:00 20,7 C 61 % 1008,9 hPa 0,0 l/m 2,2 km/h N 12,9 C 20,7 C 12,1 km/h
16.10.2014 15:00 21,1 C 60 % 1009,0 hPa 0,0 l/m 2,1 km/h N 13,0 C 21,1 C 10,9 km/h
16.10.2014 16:00 20,9 C 59 % 1009,0 hPa 0,0 l/m 3,8 km/h N 12,5 C 20,9 C 17,3 km/h
16.10.2014 17:00 20,0 C 62 % 1009,3 hPa 0,0 l/m 1,1 km/h N 12,5 C 20,0 C 8,1 km/h
16.10.2014 18:00 18,5 C 69 % 1009,7 hPa 0,0 l/m 0,0 km/h N 12,6 C 18,5 C 0,0 km/h
16.10.2014 19:00 16,8 C 76 % 1010,1 hPa 0,0 l/m 0,0 km/h N 12,6 C 16,8 C 0,0 km/h
16.10.2014 20:00 16,0 C 82 % 1010,3 hPa 0,3 l/m 0,0 km/h N 12,9 C 16,0 C 0,4 km/h
16.10.2014 21:00 15,7 C 84 % 1010,6 hPa 0,0 l/m 0,0 km/h N 12,9 C 15,7 C 0,0 km/h
16.10.2014 22:00 15,1 C 84 % 1010,8 hPa 0,0 l/m 0,0 km/h N 12,4 C 15,1 C 0,0 km/h
16.10.2014 23:00 14,8 C 84 % 1010,7 hPa 0,0 l/m 0,0 km/h N 12,1 C 14,8 C 0,0 km/h
17.10.2014 00:00 14,5 C 84 % 1010,6 hPa 0,0 l/m 0,1 km/h N 11,8 C 14,5 C 1,6 km/h
17.10.2014 01:00 14,9 C 84 % 1010,7 hPa 0,0 l/m 0,2 km/h N 12,2 C 14,9 C 2,8 km/h
17.10.2014 02:00 15,8 C 79 % 1010,4 hPa 0,0 l/m 0,3 km/h N 12,1 C 15,8 C 5,2 km/h
17.10.2014 03:00 15,7 C 79 % 1010,3 hPa 0,0 l/m 0,0 km/h N 11,9 C 15,7 C 0,0 km/h
17.10.2014 04:00 14,7 C 82 % 1009,9 hPa 0,0 l/m 0,0 km/h N 11,6 C 14,7 C 0,0 km/h
17.10.2014 05:00 14,3 C 84 % 1009,8 hPa 0,0 l/m 0,0 km/h N 11,5 C 14,3 C 0,4 km/h
17.10.2014 06:00 14,1 C 84 % 1009,5 hPa 0,0 l/m 0,0 km/h N 11,5 C 14,1 C 0,4 km/h
17.10.2014 07:00 14,1 C 84 % 1009,6 hPa 0,8 l/m 0,0 km/h N 11,4 C 14,1 C 0,8 km/h
17.10.2014 08:00 14,2 C 83 % 1010,0 hPa 1,8 l/m 0,0 km/h N 11,3 C 14,2 C 0,4 km/h
17.10.2014 09:00 14,4 C 82 % 1009,8 hPa 1,3 l/m 0,3 km/h N 11,4 C 14,4 C 2,8 km/h
17.10.2014 10:00 14,4 C 81 % 1009,7 hPa 5,5 l/m 0,7 km/h N 11,2 C 14,4 C 5,2 km/h
17.10.2014 11:00 14,0 C 80 % 1010,2 hPa 4,2 l/m 1,3 km/h N 10,6 C 14,0 C 6,4 km/h
17.10.2014 12:00 13,6 C 80 % 1011,3 hPa 4,2 l/m 1,5 km/h N 10,2 C 13,6 C 7,6 km/h
17.10.2014 13:00 13,3 C 79 % 1012,6 hPa 1,8 l/m 2,5 km/h N 9,7 C 13,3 C 9,3 km/h
17.10.2014 14:00 13,6 C 79 % 1013,9 hPa 0,3 l/m 2,5 km/h N 9,9 C 13,6 C 8,8 km/h
17.10.2014 15:00 13,9 C 79 % 1015,2 hPa 0,0 l/m 4,1 km/h N 10,3 C 13,9 C 12,5 km/h
17.10.2014 16:00 13,9 C 84 % 1015,7 hPa 0,0 l/m 6,1 km/h N 11,1 C 13,8 C 19,7 km/h
17.10.2014 17:00 14,5 C 83 % 1016,1 hPa 0,3 l/m 6,9 km/h N 11,7 C 14,2 C 20,5 km/h
17.10.2014 18:00 14,2 C 83 % 1016,9 hPa 0,0 l/m 5,5 km/h N 11,4 C 14,2 C 17,7 km/h
17.10.2014 19:00 14,2 C 82 % 1017,4 hPa 0,0 l/m 6,2 km/h N 11,2 C 14,0 C 21,3 km/h
17.10.2014 20:00 14,6 C 81 % 1018,1 hPa 0,0 l/m 7,7 km/h N 11,3 C 13,7 C 23,7 km/h
17.10.2014 21:00 14,9 C 80 % 1018,8 hPa 0,0 l/m 7,9 km/h N 11,5 C 14,1 C 23,3 km/h
17.10.2014 22:00 15,2 C 79 % 1019,4 hPa 0,0 l/m 7,4 km/h N 11,6 C 14,6 C 22,5 km/h
17.10.2014 23:00 15,2 C 79 % 1019,8 hPa 0,0 l/m 6,7 km/h N 11,6 C 14,9 C 21,3 km/h
18.10.2014 00:00 15,3 C 78 % 1020,2 hPa 0,0 l/m 7,2 km/h N 11,5 C 14,9 C 22,9 km/h
18.10.2014 01:00 15,4 C 77 % 1020,4 hPa 0,0 l/m 6,2 km/h N 11,4 C 15,3 C 18,9 km/h
18.10.2014 02:00 15,4 C 77 % 1020,7 hPa 0,0 l/m 6,2 km/h N 11,4 C 15,2 C 20,1 km/h
18.10.2014 03:00 15,5 C 77 % 1021,0 hPa 0,0 l/m 5,1 km/h N 11,4 C 15,5 C 15,3 km/h
18.10.2014 04:00 15,4 C 77 % 1021,2 hPa 0,0 l/m 4,1 km/h N 11,3 C 15,4 C 12,5 km/h
18.10.2014 05:00 15,2 C 78 % 1021,7 hPa 0,0 l/m 3,4 km/h N 11,3 C 15,2 C 12,1 km/h
18.10.2014 06:00 14,7 C 80 % 1022,6 hPa 0,0 l/m 2,2 km/h N 11,3 C 14,7 C 8,4 km/h
18.10.2014 07:00 13,9 C 82 % 1023,0 hPa 0,0 l/m 0,4 km/h N 10,8 C 13,9 C 4,0 km/h
18.10.2014 08:00 13,2 C 84 % 1023,8 hPa 0,0 l/m 0,7 km/h N 10,5 C 13,2 C 4,4 km/h
18.10.2014 09:00 14,9 C 82 % 1024,3 hPa 0,0 l/m 4,8 km/h N 11,8 C 14,8 C 14,1 km/h
18.10.2014 10:00 16,5 C 76 % 1024,8 hPa 0,0 l/m 6,2 km/h N 12,3 C 16,4 C 17,3 km/h
18.10.2014 11:00 18,0 C 72 % 1025,0 hPa 0,0 l/m 3,4 km/h N 12,8 C 18,0 C 12,5 km/h
18.10.2014 12:00 18,5 C 69 % 1025,0 hPa 0,0 l/m 2,8 km/h N 12,7 C 18,5 C 9,7 km/h
18.10.2014 13:00 19,0 C 66 % 1024,8 hPa 0,0 l/m 2,2 km/h N 12,5 C 19,0 C 9,3 km/h
18.10.2014 14:00 19,1 C 64 % 1024,5 hPa 0,0 l/m 0,9 km/h N 12,2 C 19,1 C 6,4 km/h
18.10.2014 15:00 18,7 C 67 % 1024,5 hPa 0,0 l/m 0,6 km/h N 12,4 C 18,7 C 5,6 km/h
18.10.2014 16:00 18,3 C 68 % 1024,6 hPa 0,0 l/m 0,3 km/h N 12,2 C 18,3 C 4,4 km/h
18.10.2014 17:00 17,3 C 72 % 1024,7 hPa 0,0 l/m 0,1 km/h N 12,2 C 17,3 C 1,6 km/h
18.10.2014 18:00 15,3 C 76 % 1025,0 hPa 0,0 l/m 0,0 km/h N 11,0 C 15,3 C 0,0 km/h
18.10.2014 19:00 13,3 C 80 % 1025,6 hPa 0,0 l/m 0,0 km/h N 10,0 C 13,3 C 0,0 km/h
18.10.2014 20:00 11,9 C 82 % 1025,8 hPa 0,0 l/m 0,0 km/h N 9,0 C 11,9 C 0,0 km/h
18.10.2014 21:00 11,0 C 84 % 1026,0 hPa 0,0 l/m 0,0 km/h N 8,4 C 11,0 C 0,0 km/h
18.10.2014 22:00 10,1 C 85 % 1025,9 hPa 0,0 l/m 0,0 km/h N 7,7 C 10,1 C 0,0 km/h
18.10.2014 23:00 10,3 C 84 % 1025,5 hPa 0,0 l/m 0,0 km/h N 7,7 C 10,3 C 1,2 km/h
19.10.2014 00:00 10,0 C 84 % 1025,2 hPa 0,0 l/m 0,0 km/h N 7,4 C 10,0 C 0,0 km/h
19.10.2014 01:00 9,0 C 84 % 1024,9 hPa 0,0 l/m 0,0 km/h N 6,4 C 9,0 C 0,0 km/h
19.10.2014 02:00 8,4 C 84 % 1024,5 hPa 0,0 l/m 0,0 km/h N 5,8 C 8,4 C 0,0 km/h
19.10.2014 03:00 7,9 C 83 % 1023,8 hPa 0,0 l/m 0,0 km/h N 5,3 C 7,9 C 0,0 km/h
19.10.2014 04:00 7,4 C 83 % 1023,6 hPa 0,0 l/m 0,0 km/h N 4,7 C 7,4 C 0,0 km/h
19.10.2014 05:00 7,1 C 83 % 1023,7 hPa 0,0 l/m 0,0 km/h N 4,4 C 7,1 C 0,0 km/h
19.10.2014 06:00 7,7 C 82 % 1023,6 hPa 0,0 l/m 0,1 km/h N 4,8 C 7,7 C 1,6 km/h
19.10.2014 07:00 7,2 C 82 % 1023,4 hPa 0,0 l/m 0,0 km/h N 4,3 C 7,2 C 0,0 km/h
19.10.2014 08:00 8,8 C 79 % 1023,7 hPa 0,0 l/m 0,3 km/h N 5,3 C 8,8 C 2,0 km/h
19.10.2014 09:00 10,7 C 79 % 1024,1 hPa 0,0 l/m 1,0 km/h N 7,2 C 10,7 C 5,6 km/h
19.10.2014 10:00 11,7 C 78 % 1024,2 hPa 0,0 l/m 1,7 km/h N 7,9 C 11,7 C 6,0 km/h
19.10.2014 11:00 13,2 C 77 % 1024,2 hPa 0,0 l/m 1,1 km/h N 9,2 C 13,2 C 5,6 km/h
19.10.2014 12:00 15,4 C 81 % 1023,7 hPa 0,0 l/m 0,6 km/h N 12,1 C 15,4 C 6,0 km/h
19.10.2014 13:00 17,3 C 79 % 1022,8 hPa 0,0 l/m 1,0 km/h N 13,5 C 17,3 C 5,2 km/h
19.10.2014 14:00 18,4 C 77 % 1022,1 hPa 0,0 l/m 1,1 km/h N 14,2 C 18,4 C 5,6 km/h
19.10.2014 15:00 19,2 C 75 % 1021,5 hPa 0,0 l/m 0,8 km/h N 14,7 C 19,2 C 5,6 km/h
19.10.2014 16:00 19,6 C 75 % 1021,0 hPa 0,0 l/m 0,5 km/h N 14,9 C 19,6 C 4,8 km/h
19.10.2014 17:00 18,9 C 76 % 1020,5 hPa 0,0 l/m 0,1 km/h N 14,6 C 18,9 C 1,6 km/h
19.10.2014 18:00 16,8 C 79 % 1020,7 hPa 0,0 l/m 0,0 km/h N 13,1 C 16,8 C 0,0 km/h
19.10.2014 19:00 14,6 C 83 % 1020,8 hPa 0,0 l/m 0,0 km/h N 11,7 C 14,6 C 0,0 km/h
19.10.2014 20:00 13,3 C 84 % 1020,5 hPa 0,0 l/m 0,0 km/h N 10,6 C 13,3 C 1,2 km/h
19.10.2014 21:00 12,4 C 84 % 1020,3 hPa 0,0 l/m 0,0 km/h N 9,8 C 12,4 C 1,2 km/h
19.10.2014 22:00 11,7 C 84 % 1020,3 hPa 0,0 l/m 0,0 km/h N 9,1 C 11,7 C 0,0 km/h
19.10.2014 23:00 10,8 C 84 % 1020,3 hPa 0,0 l/m 0,0 km/h N 8,2 C 10,8 C 0,8 km/h
Min-Datum _ 19.10.14 16.10.14 14.10.14 - 13.10.14 - 19.10.14 19.10.14 13.10.14
_ Min-Zeit 07:45 15:45 02:00 - 00:00 - 07:45 05:00 00:00
Minimum _ 7,0 C 56 % 1005,7 hPa - 0,0 km/h - 4,1 C 7,1 C 0,0 km/h
Max-Datum _ 16.10.14 14.10.14 18.10.14 17.10.14 14.10.14 - 19.10.14 16.10.14 14.10.14
_ Max-Zeit 13:45 08:30 21:15 10:30 09:45 - 15:45 13:30 09:15
Maximum _ 21,5 C 85 % 1026,0 hPa 5,5 l/m 12,2 km/h
N
- 15,0 C 21,4 C 40,2 km/h
N
Durchschnitt _ 14,4 C 78 % 1014,0 hPa #20,8 l/m 1,4 km/h N 10,6 C 14,3 C 5,6 km/h